sensor_id;sensor_type;location;lat;lon;timestamp;pressure;altitude;pressure_sealevel;temperature;humidity
63121;BME280;54478;48.684;20.114;2023-05-21T00:01:39;107876.41;;;16.31;100.00
63121;BME280;54478;48.684;20.114;2023-05-21T00:04:08;107939.88;;;16.23;100.00
63121;BME280;54478;48.684;20.114;2023-05-21T00:06:36;107977.16;;;16.15;100.00
63121;BME280;54478;48.684;20.114;2023-05-21T00:09:05;108024.00;;;15.86;100.00
63121;BME280;54478;48.684;20.114;2023-05-21T00:11:33;108116.84;;;15.86;100.00
63121;BME280;54478;48.684;20.114;2023-05-21T00:14:02;108144.47;;;15.84;100.00
63121;BME280;54478;48.684;20.114;2023-05-21T00:16:30;108148.66;;;15.87;100.00
63121;BME280;54478;48.684;20.114;2023-05-21T00:18:58;108157.56;;;15.94;100.00
63121;BME280;54478;48.684;20.114;2023-05-21T00:21:27;108138.94;;;15.98;100.00
63121;BME280;54478;48.684;20.114;2023-05-21T00:23:55;108067.69;;;15.78;100.00
63121;BME280;54478;48.684;20.114;2023-05-21T00:26:23;108075.00;;;15.79;100.00
63121;BME280;54478;48.684;20.114;2023-05-21T00:28:52;108091.28;;;15.83;100.00
63121;BME280;54478;48.684;20.114;2023-05-21T00:31:20;108121.09;;;15.84;100.00
63121;BME280;54478;48.684;20.114;2023-05-21T00:33:48;108141.88;;;15.88;100.00
63121;BME280;54478;48.684;20.114;2023-05-21T00:36:16;108103.50;;;15.73;100.00
63121;BME280;54478;48.684;20.114;2023-05-21T00:38:45;108082.56;;;15.60;100.00
63121;BME280;54478;48.684;20.114;2023-05-21T00:41:13;108079.59;;;15.46;100.00
63121;BME280;54478;48.684;20.114;2023-05-21T00:43:38;108115.03;;;15.47;100.00
63121;BME280;54478;48.684;20.114;2023-05-21T00:46:17;108190.59;;;15.54;100.00
63121;BME280;54478;48.684;20.114;2023-05-21T00:48:46;108180.88;;;15.41;100.00
63121;BME280;54478;48.684;20.114;2023-05-21T00:51:14;108149.50;;;15.28;100.00
63121;BME280;54478;48.684;20.114;2023-05-21T00:53:43;108221.38;;;15.40;100.00
63121;BME280;54478;48.684;20.114;2023-05-21T00:56:12;108249.28;;;15.31;100.00
63121;BME280;54478;48.684;20.114;2023-05-21T00:58:41;108261.97;;;15.23;100.00
63121;BME280;54478;48.684;20.114;2023-05-21T01:01:10;108318.50;;;15.22;100.00
63121;BME280;54478;48.684;20.114;2023-05-21T01:03:40;108385.91;;;15.32;100.00
63121;BME280;54478;48.684;20.114;2023-05-21T01:06:11;108425.84;;;15.29;100.00
63121;BME280;54478;48.684;20.114;2023-05-21T01:08:41;108444.72;;;15.18;100.00
63121;BME280;54478;48.684;20.114;2023-05-21T01:11:10;108506.53;;;15.23;100.00
63121;BME280;54478;48.684;20.114;2023-05-21T01:13:38;108554.06;;;15.15;100.00
63121;BME280;54478;48.684;20.114;2023-05-21T01:16:09;108575.72;;;15.09;100.00
63121;BME280;54478;48.684;20.114;2023-05-21T01:18:38;108628.31;;;15.03;100.00
63121;BME280;54478;48.684;20.114;2023-05-21T01:21:06;108669.59;;;14.98;100.00
63121;BME280;54478;48.684;20.114;2023-05-21T01:23:35;108686.44;;;14.77;100.00
63121;BME280;54478;48.684;20.114;2023-05-21T01:26:03;108764.25;;;14.71;100.00
63121;BME280;54478;48.684;20.114;2023-05-21T01:28:32;108852.75;;;14.74;100.00
63121;BME280;54478;48.684;20.114;2023-05-21T01:31:22;108945.44;;;14.74;100.00
63121;BME280;54478;48.684;20.114;2023-05-21T01:33:54;108994.47;;;14.61;100.00
63121;BME280;54478;48.684;20.114;2023-05-21T01:36:27;109066.72;;;14.66;100.00
63121;BME280;54478;48.684;20.114;2023-05-21T01:39:05;109125.34;;;14.57;100.00
63121;BME280;54478;48.684;20.114;2023-05-21T01:41:36;109175.91;;;14.57;100.00
63121;BME280;54478;48.684;20.114;2023-05-21T01:44:06;109248.31;;;14.55;100.00
63121;BME280;54478;48.684;20.114;2023-05-21T01:46:34;109225.03;;;14.32;100.00
63121;BME280;54478;48.684;20.114;2023-05-21T01:49:04;109260.00;;;14.24;100.00
63121;BME280;54478;48.684;20.114;2023-05-21T01:51:33;109314.78;;;14.27;100.00
63121;BME280;54478;48.684;20.114;2023-05-21T01:54:02;109349.78;;;14.19;100.00
63121;BME280;54478;48.684;20.114;2023-05-21T01:56:30;109383.22;;;14.21;100.00
63121;BME280;54478;48.684;20.114;2023-05-21T01:59:01;109403.09;;;14.19;100.00
63121;BME280;54478;48.684;20.114;2023-05-21T02:01:29;109399.22;;;14.03;100.00
63121;BME280;54478;48.684;20.114;2023-05-21T02:03:57;109421.06;;;14.01;100.00
63121;BME280;54478;48.684;20.114;2023-05-21T02:06:26;109453.81;;;13.95;100.00
63121;BME280;54478;48.684;20.114;2023-05-21T02:08:54;109482.63;;;13.91;100.00
63121;BME280;54478;48.684;20.114;2023-05-21T02:11:23;109522.69;;;13.86;100.00
63121;BME280;54478;48.684;20.114;2023-05-21T02:13:51;109570.22;;;13.93;100.00
63121;BME280;54478;48.684;20.114;2023-05-21T02:16:19;109614.88;;;13.94;100.00
63121;BME280;54478;48.684;20.114;2023-05-21T02:18:49;109641.81;;;13.95;100.00
63121;BME280;54478;48.684;20.114;2023-05-21T02:21:21;109613.00;;;13.71;100.00
63121;BME280;54478;48.684;20.114;2023-05-21T02:23:50;109662.25;;;13.79;100.00
63121;BME280;54478;48.684;20.114;2023-05-21T02:26:18;109705.53;;;13.83;100.00
63121;BME280;54478;48.684;20.114;2023-05-21T02:28:46;109706.66;;;13.70;100.00
63121;BME280;54478;48.684;20.114;2023-05-21T02:31:15;109744.94;;;13.76;100.00
63121;BME280;54478;48.684;20.114;2023-05-21T02:33:43;109773.63;;;13.78;100.00
63121;BME280;54478;48.684;20.114;2023-05-21T02:36:12;109747.78;;;13.64;100.00
63121;BME280;54478;48.684;20.114;2023-05-21T02:38:42;109744.47;;;13.68;100.00
63121;BME280;54478;48.684;20.114;2023-05-21T02:41:11;109733.50;;;13.54;100.00
63121;BME280;54478;48.684;20.114;2023-05-21T02:43:36;109722.69;;;13.46;100.00
63121;BME280;54478;48.684;20.114;2023-05-21T02:46:05;109791.56;;;13.54;100.00
63121;BME280;54478;48.684;20.114;2023-05-21T02:48:34;109806.19;;;13.56;100.00
63121;BME280;54478;48.684;20.114;2023-05-21T02:51:03;109770.44;;;13.39;100.00
63121;BME280;54478;48.684;20.114;2023-05-21T02:53:31;109768.09;;;13.36;100.00
63121;BME280;54478;48.684;20.114;2023-05-21T02:55:59;109804.84;;;13.46;100.00
63121;BME280;54478;48.684;20.114;2023-05-21T02:58:27;109836.06;;;13.50;100.00
63121;BME280;54478;48.684;20.114;2023-05-21T03:00:56;109838.50;;;13.46;100.00
63121;BME280;54478;48.684;20.114;2023-05-21T03:03:24;109828.22;;;13.40;100.00
63121;BME280;54478;48.684;20.114;2023-05-21T03:05:53;109825.91;;;13.37;100.00
63121;BME280;54478;48.684;20.114;2023-05-21T03:08:21;109806.03;;;13.39;100.00
63121;BME280;54478;48.684;20.114;2023-05-21T03:10:50;109814.03;;;13.35;100.00
63121;BME280;54478;48.684;20.114;2023-05-21T03:13:18;109801.38;;;13.32;100.00
63121;BME280;54478;48.684;20.114;2023-05-21T03:15:46;109816.41;;;13.38;100.00
63121;BME280;54478;48.684;20.114;2023-05-21T03:18:15;109786.50;;;13.32;100.00
63121;BME280;54478;48.684;20.114;2023-05-21T03:20:43;109756.25;;;13.22;100.00
63121;BME280;54478;48.684;20.114;2023-05-21T03:23:11;109761.41;;;13.25;100.00
63121;BME280;54478;48.684;20.114;2023-05-21T03:25:41;109789.69;;;13.36;100.00
63121;BME280;54478;48.684;20.114;2023-05-21T03:28:09;109688.97;;;13.10;100.00
63121;BME280;54478;48.684;20.114;2023-05-21T03:30:38;109697.97;;;13.12;100.00
63121;BME280;54478;48.684;20.114;2023-05-21T03:33:06;109710.31;;;13.11;100.00
63121;BME280;54478;48.684;20.114;2023-05-21T03:35:35;109708.72;;;13.15;100.00
63121;BME280;54478;48.684;20.114;2023-05-21T03:38:03;109723.00;;;13.26;100.00
63121;BME280;54478;48.684;20.114;2023-05-21T03:40:31;109722.16;;;13.25;100.00
63121;BME280;54478;48.684;20.114;2023-05-21T03:42:57;109650.72;;;13.04;100.00
63121;BME280;54478;48.684;20.114;2023-05-21T03:45:25;109614.16;;;12.99;100.00
63121;BME280;54478;48.684;20.114;2023-05-21T03:47:54;109635.09;;;13.08;100.00
63121;BME280;54478;48.684;20.114;2023-05-21T03:50:22;109608.69;;;13.04;100.00
63121;BME280;54478;48.684;20.114;2023-05-21T03:52:50;109644.84;;;13.18;100.00
63121;BME280;54478;48.684;20.114;2023-05-21T03:55:19;109672.03;;;13.29;100.00
63121;BME280;54478;48.684;20.114;2023-05-21T03:57:47;109706.31;;;13.43;100.00
63121;BME280;54478;48.684;20.114;2023-05-21T04:00:16;109691.56;;;13.47;100.00
63121;BME280;54478;48.684;20.114;2023-05-21T04:02:44;109623.81;;;13.39;100.00
63121;BME280;54478;48.684;20.114;2023-05-21T04:05:13;109608.69;;;13.40;100.00
63121;BME280;54478;48.684;20.114;2023-05-21T04:07:41;109671.44;;;13.74;100.00
63121;BME280;54478;48.684;20.114;2023-05-21T04:10:10;109635.66;;;13.81;100.00
63121;BME280;54478;48.684;20.114;2023-05-21T04:12:38;109603.91;;;13.93;100.00
63121;BME280;54478;48.684;20.114;2023-05-21T04:15:07;109560.81;;;13.99;100.00
63121;BME280;54478;48.684;20.114;2023-05-21T04:17:35;109469.72;;;13.90;100.00
63121;BME280;54478;48.684;20.114;2023-05-21T04:20:04;109383.16;;;13.81;100.00
63121;BME280;54478;48.684;20.114;2023-05-21T04:22:32;109399.22;;;14.03;100.00
63121;BME280;54478;48.684;20.114;2023-05-21T04:25:00;109376.00;;;14.08;100.00
63121;BME280;54478;48.684;20.114;2023-05-21T04:27:29;109330.59;;;14.11;100.00
63121;BME280;54478;48.684;20.114;2023-05-21T04:29:57;109336.47;;;14.31;100.00
63121;BME280;54478;48.684;20.114;2023-05-21T04:32:25;109298.69;;;14.39;100.00
63121;BME280;54478;48.684;20.114;2023-05-21T04:34:55;109221.22;;;14.43;100.00
63121;BME280;54478;48.684;20.114;2023-05-21T04:37:24;109184.88;;;14.59;100.00
63121;BME280;54478;48.684;20.114;2023-05-21T04:39:53;109157.00;;;14.79;100.00
63121;BME280;54478;48.684;20.114;2023-05-21T04:42:19;109028.84;;;14.73;100.00
63121;BME280;54478;48.684;20.114;2023-05-21T04:44:50;108981.22;;;14.94;100.00
63121;BME280;54478;48.684;20.114;2023-05-21T04:47:19;108931.84;;;15.13;100.00
63121;BME280;54478;48.684;20.114;2023-05-21T04:49:47;108822.50;;;15.12;100.00
63121;BME280;54478;48.684;20.114;2023-05-21T04:52:17;108746.88;;;15.21;100.00
63121;BME280;54478;48.684;20.114;2023-05-21T04:54:46;108662.25;;;15.27;100.00
63121;BME280;54478;48.684;20.114;2023-05-21T04:57:14;108552.63;;;15.22;100.00
63121;BME280;54478;48.684;20.114;2023-05-21T04:59:45;108489.09;;;15.32;100.00
63121;BME280;54478;48.684;20.114;2023-05-21T05:02:13;108397.97;;;15.33;100.00
63121;BME280;54478;48.684;20.114;2023-05-21T05:04:42;108376.50;;;15.52;100.00
63121;BME280;54478;48.684;20.114;2023-05-21T05:07:11;108335.59;;;15.70;100.00
63121;BME280;54478;48.684;20.114;2023-05-21T05:09:39;108249.47;;;15.74;100.00
63121;BME280;54478;48.684;20.114;2023-05-21T05:12:07;108128.00;;;15.67;100.00
63121;BME280;54478;48.684;20.114;2023-05-21T05:14:36;108140.66;;;15.94;100.00
63121;BME280;54478;48.684;20.114;2023-05-21T05:17:04;108121.69;;;16.24;100.00
63121;BME280;54478;48.684;20.114;2023-05-21T05:19:35;107990.91;;;16.16;100.00
63121;BME280;54478;48.684;20.114;2023-05-21T05:22:03;107915.22;;;16.15;100.00
63121;BME280;54478;48.684;20.114;2023-05-21T05:24:32;107910.09;;;16.36;100.00
63121;BME280;54478;48.684;20.114;2023-05-21T05:27:00;107863.78;;;16.42;100.00
63121;BME280;54478;48.684;20.114;2023-05-21T05:29:28;107827.41;;;16.59;100.00
63121;BME280;54478;48.684;20.114;2023-05-21T05:31:57;107770.84;;;16.70;100.00
63121;BME280;54478;48.684;20.114;2023-05-21T05:34:25;107695.63;;;16.70;100.00
63121;BME280;54478;48.684;20.114;2023-05-21T05:36:53;107653.84;;;16.86;100.00
63121;BME280;54478;48.684;20.114;2023-05-21T05:39:21;107620.56;;;17.11;100.00
63121;BME280;54478;48.684;20.114;2023-05-21T05:41:50;107513.91;;;17.04;100.00
63121;BME280;54478;48.684;20.114;2023-05-21T05:44:18;107523.38;;;17.49;100.00
63121;BME280;54478;48.684;20.114;2023-05-21T05:46:46;107426.53;;;17.62;100.00
63121;BME280;54478;48.684;20.114;2023-05-21T05:49:15;107319.00;;;17.64;100.00
63121;BME280;54478;48.684;20.114;2023-05-21T05:51:44;107254.25;;;17.85;100.00
63121;BME280;54478;48.684;20.114;2023-05-21T05:54:12;107168.91;;;17.97;100.00
63121;BME280;54478;48.684;20.114;2023-05-21T05:56:41;107087.28;;;17.83;100.00
63121;BME280;54478;48.684;20.114;2023-05-21T05:59:09;107047.16;;;18.07;100.00
63121;BME280;54478;48.684;20.114;2023-05-21T06:01:37;106972.66;;;18.20;100.00
63121;BME280;54478;48.684;20.114;2023-05-21T06:04:05;106839.84;;;18.17;100.00
63121;BME280;54478;48.684;20.114;2023-05-21T06:06:34;106756.38;;;18.28;100.00
63121;BME280;54478;48.684;20.114;2023-05-21T06:09:03;106622.47;;;18.41;100.00
63121;BME280;54478;48.684;20.114;2023-05-21T06:11:32;106453.22;;;18.61;100.00
63121;BME280;54478;48.684;20.114;2023-05-21T06:14:00;106241.34;;;18.77;100.00
63121;BME280;54478;48.684;20.114;2023-05-21T06:16:28;105973.13;;;18.84;100.00
63121;BME280;54478;48.684;20.114;2023-05-21T06:18:58;105713.16;;;18.81;100.00
63121;BME280;54478;48.684;20.114;2023-05-21T06:21:26;105564.66;;;19.14;100.00
63121;BME280;54478;48.684;20.114;2023-05-21T06:23:54;105427.88;;;19.22;100.00
63121;BME280;54478;48.684;20.114;2023-05-21T06:26:23;105360.00;;;19.18;100.00
63121;BME280;54478;48.684;20.114;2023-05-21T06:28:51;105268.50;;;19.41;100.00
63121;BME280;54478;48.684;20.114;2023-05-21T06:31:19;105140.88;;;19.43;100.00
63121;BME280;54478;48.684;20.114;2023-05-21T06:33:49;105131.28;;;19.80;100.00
63121;BME280;54478;48.684;20.114;2023-05-21T06:36:17;105078.00;;;19.93;100.00
63121;BME280;54478;48.684;20.114;2023-05-21T06:38:45;104945.00;;;19.82;100.00
63121;BME280;54478;48.684;20.114;2023-05-21T06:41:14;104936.88;;;20.20;100.00
63121;BME280;54478;48.684;20.114;2023-05-21T06:43:40;104787.63;;;20.20;100.00
63121;BME280;54478;48.684;20.114;2023-05-21T06:46:08;104727.19;;;20.52;100.00
63121;BME280;54478;48.684;20.114;2023-05-21T06:48:36;104567.09;;;20.41;100.00
63121;BME280;54478;48.684;20.114;2023-05-21T06:51:05;104543.72;;;20.75;100.00
63121;BME280;54478;48.684;20.114;2023-05-21T06:53:33;104396.16;;;20.62;100.00
63121;BME280;54478;48.684;20.114;2023-05-21T06:56:01;104332.34;;;20.53;100.00
63121;BME280;54478;48.684;20.114;2023-05-21T06:58:29;104146.91;;;20.65;100.00
63121;BME280;54478;48.684;20.114;2023-05-21T07:00:58;104003.22;;;20.90;100.00
63121;BME280;54478;48.684;20.114;2023-05-21T07:03:27;103959.28;;;21.01;100.00
63121;BME280;54478;48.684;20.114;2023-05-21T07:05:56;103876.75;;;21.16;100.00
63121;BME280;54478;48.684;20.114;2023-05-21T07:08:24;103847.72;;;21.45;100.00
63121;BME280;54478;48.684;20.114;2023-05-21T07:10:50;103679.41;;;21.68;100.00
63121;BME280;54478;48.684;20.114;2023-05-21T07:13:18;103508.69;;;21.60;100.00
63121;BME280;54478;48.684;20.114;2023-05-21T07:15:46;103431.97;;;21.90;100.00
63121;BME280;54478;48.684;20.114;2023-05-21T07:18:15;103351.84;;;21.85;100.00
63121;BME280;54478;48.684;20.114;2023-05-21T07:20:43;103333.28;;;22.07;100.00
63121;BME280;54478;48.684;20.114;2023-05-21T07:23:12;103252.78;;;21.91;100.00
63121;BME280;54478;48.684;20.114;2023-05-21T07:25:40;103208.94;;;22.14;100.00
63121;BME280;54478;48.684;20.114;2023-05-21T07:28:08;103129.69;;;22.29;100.00
63121;BME280;54478;48.684;20.114;2023-05-21T07:30:36;103109.44;;;22.49;100.00
63121;BME280;54478;48.684;20.114;2023-05-21T07:33:04;103014.94;;;22.40;100.00
63121;BME280;54478;48.684;20.114;2023-05-21T07:35:33;102947.13;;;22.60;100.00
63121;BME280;54478;48.684;20.114;2023-05-21T07:38:01;102841.28;;;22.60;100.00
63121;BME280;54478;48.684;20.114;2023-05-21T07:40:30;102837.78;;;22.65;100.00
63121;BME280;54478;48.684;20.114;2023-05-21T07:42:56;102709.97;;;22.22;100.00
63121;BME280;54478;48.684;20.114;2023-05-21T07:45:24;102621.72;;;22.54;100.00
63121;BME280;54478;48.684;20.114;2023-05-21T07:47:53;102581.78;;;22.57;100.00
63121;BME280;54478;48.684;20.114;2023-05-21T07:50:21;102653.59;;;22.82;100.00
63121;BME280;54478;48.684;20.114;2023-05-21T07:52:49;102598.25;;;22.77;100.00
63121;BME280;54478;48.684;20.114;2023-05-21T07:55:18;102506.47;;;22.86;100.00
63121;BME280;54478;48.684;20.114;2023-05-21T07:57:46;102462.63;;;23.17;100.00
63121;BME280;54478;48.684;20.114;2023-05-21T08:00:14;102332.59;;;23.27;100.00
63121;BME280;54478;48.684;20.114;2023-05-21T08:02:43;102289.81;;;23.01;100.00
63121;BME280;54478;48.684;20.114;2023-05-21T08:05:12;102269.06;;;22.94;100.00
63121;BME280;54478;48.684;20.114;2023-05-21T08:07:40;102330.34;;;23.52;100.00
63121;BME280;54478;48.684;20.114;2023-05-21T08:10:09;102240.75;;;23.56;100.00
63121;BME280;54478;48.684;20.114;2023-05-21T08:12:37;102240.06;;;23.88;100.00
63121;BME280;54478;48.684;20.114;2023-05-21T08:15:05;102166.44;;;23.69;100.00
63121;BME280;54478;48.684;20.114;2023-05-21T08:17:34;102170.91;;;23.76;100.00
63121;BME280;54478;48.684;20.114;2023-05-21T08:20:03;102091.75;;;23.48;100.00
63121;BME280;54478;48.684;20.114;2023-05-21T08:22:31;102114.75;;;23.71;100.00
63121;BME280;54478;48.684;20.114;2023-05-21T08:24:59;102035.91;;;23.45;100.00
63121;BME280;54478;48.684;20.114;2023-05-21T08:27:28;102015.63;;;23.63;100.00
63121;BME280;54478;48.684;20.114;2023-05-21T08:29:56;101961.13;;;23.65;100.00
63121;BME280;54478;48.684;20.114;2023-05-21T08:32:25;101965.81;;;24.06;100.00
63121;BME280;54478;48.684;20.114;2023-05-21T08:34:53;101802.56;;;23.97;100.00
63121;BME280;54478;48.684;20.114;2023-05-21T08:37:21;101776.97;;;23.97;100.00
63121;BME280;54478;48.684;20.114;2023-05-21T08:39:50;101782.19;;;24.16;100.00
63121;BME280;54478;48.684;20.114;2023-05-21T08:42:32;101681.84;;;24.44;100.00
63121;BME280;54478;48.684;20.114;2023-05-21T08:45:04;101520.56;;;24.69;100.00
63121;BME280;54478;48.684;20.114;2023-05-21T08:47:33;101819.59;;;24.75;100.00
63121;BME280;54478;48.684;20.114;2023-05-21T08:50:12;101936.97;;;25.07;100.00
63121;BME280;54478;48.684;20.114;2023-05-21T08:52:39;101911.31;;;24.96;100.00
63121;BME280;54478;48.684;20.114;2023-05-21T08:55:08;101929.16;;;24.91;100.00
63121;BME280;54478;48.684;20.114;2023-05-21T08:57:41;102274.88;;;25.14;100.00
63121;BME280;54478;48.684;20.114;2023-05-21T09:00:10;103190.25;;;25.40;100.00
63121;BME280;54478;48.684;20.114;2023-05-21T09:02:39;102864.09;;;24.63;100.00
63121;BME280;54478;48.684;20.114;2023-05-21T09:05:08;100839.81;;;25.46;100.00
63121;BME280;54478;48.684;20.114;2023-05-21T09:07:58;100037.88;;;25.14;100.00
63121;BME280;54478;48.684;20.114;2023-05-21T09:10:35;100172.94;;;25.40;100.00
63121;BME280;54478;48.684;20.114;2023-05-21T09:13:02;99934.13;;;25.46;100.00
63121;BME280;54478;48.684;20.114;2023-05-21T09:15:31;99903.75;;;24.97;100.00
63121;BME280;54478;48.684;20.114;2023-05-21T09:17:59;100020.59;;;25.49;100.00
63121;BME280;54478;48.684;20.114;2023-05-21T09:20:28;100091.31;;;25.21;100.00
63121;BME280;54478;48.684;20.114;2023-05-21T09:23:01;99842.75;;;26.06;100.00
63121;BME280;54478;48.684;20.114;2023-05-21T09:25:30;99640.41;;;25.92;100.00
63121;BME280;54478;48.684;20.114;2023-05-21T09:27:58;99444.66;;;26.13;100.00
63121;BME280;54478;48.684;20.114;2023-05-21T09:30:26;99410.38;;;24.73;100.00
63121;BME280;54478;48.684;20.114;2023-05-21T09:32:56;99433.16;;;25.29;100.00
63121;BME280;54478;48.684;20.114;2023-05-21T09:35:25;99341.03;;;25.59;100.00
63121;BME280;54478;48.684;20.114;2023-05-21T09:37:54;98995.91;;;25.92;100.00
63121;BME280;54478;48.684;20.114;2023-05-21T09:40:24;98774.81;;;25.82;100.00
63121;BME280;54478;48.684;20.114;2023-05-21T09:42:52;98712.00;;;26.19;100.00
63121;BME280;54478;48.684;20.114;2023-05-21T09:45:22;98626.38;;;26.38;100.00
63121;BME280;54478;48.684;20.114;2023-05-21T09:47:52;98544.66;;;26.43;100.00
63121;BME280;54478;48.684;20.114;2023-05-21T09:50:21;98446.13;;;26.73;100.00
63121;BME280;54478;48.684;20.114;2023-05-21T09:52:50;98392.22;;;26.15;100.00
63121;BME280;54478;48.684;20.114;2023-05-21T09:55:25;98411.97;;;25.91;100.00
63121;BME280;54478;48.684;20.114;2023-05-21T09:57:51;98351.56;;;26.36;100.00
63121;BME280;54478;48.684;20.114;2023-05-21T10:00:25;98283.78;;;26.46;100.00
63121;BME280;54478;48.684;20.114;2023-05-21T10:03:00;98233.47;;;26.63;100.00
63121;BME280;54478;48.684;20.114;2023-05-21T10:05:29;71151.16;;;-149.15;100.00
63121;BME280;54478;48.684;20.114;2023-05-21T10:08:01;71151.16;;;-149.15;100.00
63121;BME280;54478;48.684;20.114;2023-05-21T10:10:30;71151.16;;;-149.15;100.00
63121;BME280;54478;48.684;20.114;2023-05-21T10:13:08;71151.16;;;-149.15;100.00
63121;BME280;54478;48.684;20.114;2023-05-21T10:15:41;71151.16;;;-149.15;100.00
63121;BME280;54478;48.684;20.114;2023-05-21T10:18:12;71151.16;;;-149.15;100.00
63121;BME280;54478;48.684;20.114;2023-05-21T10:20:41;71151.16;;;-149.15;100.00
63121;BME280;54478;48.684;20.114;2023-05-21T10:23:09;71151.16;;;-149.15;100.00
63121;BME280;54478;48.684;20.114;2023-05-21T10:25:40;71151.16;;;-149.15;100.00
63121;BME280;54478;48.684;20.114;2023-05-21T10:28:08;71151.16;;;-149.15;100.00
63121;BME280;54478;48.684;20.114;2023-05-21T10:30:37;71151.16;;;-149.15;100.00
63121;BME280;54478;48.684;20.114;2023-05-21T10:33:06;71151.16;;;-149.15;100.00
63121;BME280;54478;48.684;20.114;2023-05-21T10:35:36;71151.16;;;-149.15;100.00
63121;BME280;54478;48.684;20.114;2023-05-21T10:38:06;71151.16;;;-149.15;100.00
63121;BME280;54478;48.684;20.114;2023-05-21T10:40:35;71151.16;;;-149.15;100.00
63121;BME280;54478;48.684;20.114;2023-05-21T10:43:24;71151.16;;;-149.15;100.00
63121;BME280;54478;48.684;20.114;2023-05-21T10:51:54;71151.16;;;-149.15;100.00
63121;BME280;54478;48.684;20.114;2023-05-21T10:55:01;71151.16;;;-149.15;100.00
63121;BME280;54478;48.684;20.114;2023-05-21T10:57:51;71151.16;;;-149.15;100.00
63121;BME280;54478;48.684;20.114;2023-05-21T11:00:23;71151.16;;;-149.15;100.00
63121;BME280;54478;48.684;20.114;2023-05-21T11:02:52;71151.16;;;-149.15;100.00
63121;BME280;54478;48.684;20.114;2023-05-21T11:05:53;71151.16;;;-149.15;100.00
63121;BME280;54478;48.684;20.114;2023-05-21T11:08:27;71151.16;;;-149.15;100.00
63121;BME280;54478;48.684;20.114;2023-05-21T11:10:57;71151.16;;;-149.15;100.00
63121;BME280;54478;48.684;20.114;2023-05-21T11:13:27;71151.16;;;-149.15;100.00
63121;BME280;54478;48.684;20.114;2023-05-21T11:21:03;71151.16;;;-149.15;100.00
63121;BME280;54478;48.684;20.114;2023-05-21T11:26:20;71151.16;;;-149.15;100.00
63121;BME280;54478;48.684;20.114;2023-05-21T11:28:50;71151.16;;;-149.15;100.00
63121;BME280;54478;48.684;20.114;2023-05-21T11:31:32;71151.16;;;-149.15;100.00
63121;BME280;54478;48.684;20.114;2023-05-21T11:36:36;71151.16;;;-149.15;100.00
63121;BME280;54478;48.684;20.114;2023-05-21T11:39:28;71151.16;;;-149.15;100.00
63121;BME280;54478;48.684;20.114;2023-05-21T11:42:11;71151.16;;;-149.15;100.00
63121;BME280;54478;48.684;20.114;2023-05-21T11:44:40;71151.16;;;-149.15;100.00
63121;BME280;54478;48.684;20.114;2023-05-21T11:47:07;71151.16;;;-149.15;100.00
63121;BME280;54478;48.684;20.114;2023-05-21T11:49:38;71151.16;;;-149.15;100.00
63121;BME280;54478;48.684;20.114;2023-05-21T11:52:07;71151.16;;;-149.15;100.00
63121;BME280;54478;48.684;20.114;2023-05-21T11:54:51;71151.16;;;-149.15;100.00
63121;BME280;54478;48.684;20.114;2023-05-21T11:57:20;71151.16;;;-149.15;100.00
63121;BME280;54478;48.684;20.114;2023-05-21T11:59:49;71151.16;;;-149.15;100.00
63121;BME280;54478;48.684;20.114;2023-05-21T12:02:21;71151.16;;;-149.15;100.00
63121;BME280;54478;48.684;20.114;2023-05-21T12:04:49;71151.16;;;-149.15;100.00
63121;BME280;54478;48.684;20.114;2023-05-21T12:07:19;71151.16;;;-149.15;100.00
63121;BME280;54478;48.684;20.114;2023-05-21T12:09:49;71151.16;;;-149.15;100.00
63121;BME280;54478;48.684;20.114;2023-05-21T12:12:19;71151.16;;;-149.15;100.00
63121;BME280;54478;48.684;20.114;2023-05-21T12:14:48;71151.16;;;-149.15;100.00
63121;BME280;54478;48.684;20.114;2023-05-21T12:17:18;71151.16;;;-149.15;100.00
63121;BME280;54478;48.684;20.114;2023-05-21T12:19:48;71151.16;;;-149.15;100.00
63121;BME280;54478;48.684;20.114;2023-05-21T12:22:15;71151.16;;;-149.15;100.00
63121;BME280;54478;48.684;20.114;2023-05-21T12:24:44;71151.16;;;-149.15;100.00
63121;BME280;54478;48.684;20.114;2023-05-21T12:27:11;71151.16;;;-149.15;100.00
63121;BME280;54478;48.684;20.114;2023-05-21T12:29:41;71151.16;;;-149.15;100.00
63121;BME280;54478;48.684;20.114;2023-05-21T12:32:08;71151.16;;;-149.15;100.00
63121;BME280;54478;48.684;20.114;2023-05-21T12:37:18;71151.16;;;-149.15;100.00
63121;BME280;54478;48.684;20.114;2023-05-21T12:39:52;71151.16;;;-149.15;100.00
63121;BME280;54478;48.684;20.114;2023-05-21T12:42:25;71151.16;;;-149.15;100.00
63121;BME280;54478;48.684;20.114;2023-05-21T12:44:53;71151.16;;;-149.15;100.00
63121;BME280;54478;48.684;20.114;2023-05-21T12:47:22;71151.16;;;-149.15;100.00
63121;BME280;54478;48.684;20.114;2023-05-21T12:49:59;71151.16;;;-149.15;100.00
63121;BME280;54478;48.684;20.114;2023-05-21T12:52:26;71151.16;;;-149.15;100.00
63121;BME280;54478;48.684;20.114;2023-05-21T12:54:55;71151.16;;;-149.15;100.00
63121;BME280;54478;48.684;20.114;2023-05-21T12:57:35;71151.16;;;-149.15;100.00
63121;BME280;54478;48.684;20.114;2023-05-21T13:00:05;71151.16;;;-149.15;100.00